sensor_id;sensor_type;location;lat;lon;timestamp;P1;durP1;ratioP1;P2;durP2;ratioP2
77262;SDS011;66373;52.334;4.806;2023-01-08T00:01:04;5.88;;;3.40;;
77262;SDS011;66373;52.334;4.806;2023-01-08T00:03:33;8.82;;;3.35;;
77262;SDS011;66373;52.334;4.806;2023-01-08T00:06:01;11.95;;;3.40;;
77262;SDS011;66373;52.334;4.806;2023-01-08T00:08:29;13.43;;;8.23;;
77262;SDS011;66373;52.334;4.806;2023-01-08T00:10:57;23.80;;;9.73;;
77262;SDS011;66373;52.334;4.806;2023-01-08T00:13:25;26.48;;;13.80;;
77262;SDS011;66373;52.334;4.806;2023-01-08T00:15:52;30.70;;;17.00;;
77262;SDS011;66373;52.334;4.806;2023-01-08T00:18:19;25.70;;;13.23;;
77262;SDS011;66373;52.334;4.806;2023-01-08T00:20:48;20.33;;;10.63;;
77262;SDS011;66373;52.334;4.806;2023-01-08T00:23:16;16.67;;;9.00;;
77262;SDS011;66373;52.334;4.806;2023-01-08T00:25:44;17.30;;;9.23;;
77262;SDS011;66373;52.334;4.806;2023-01-08T00:28:11;15.95;;;9.40;;
77262;SDS011;66373;52.334;4.806;2023-01-08T00:30:39;14.55;;;8.25;;
77262;SDS011;66373;52.334;4.806;2023-01-08T00:33:06;17.40;;;8.07;;
77262;SDS011;66373;52.334;4.806;2023-01-08T00:35:33;13.73;;;7.25;;
77262;SDS011;66373;52.334;4.806;2023-01-08T00:38:01;14.15;;;7.78;;
77262;SDS011;66373;52.334;4.806;2023-01-08T00:40:28;14.25;;;8.48;;
77262;SDS011;66373;52.334;4.806;2023-01-08T00:42:55;14.63;;;7.88;;
77262;SDS011;66373;52.334;4.806;2023-01-08T00:45:22;19.30;;;8.52;;
77262;SDS011;66373;52.334;4.806;2023-01-08T00:47:48;15.63;;;7.40;;
77262;SDS011;66373;52.334;4.806;2023-01-08T00:50:15;13.63;;;7.05;;
77262;SDS011;66373;52.334;4.806;2023-01-08T00:52:42;13.90;;;6.93;;
77262;SDS011;66373;52.334;4.806;2023-01-08T00:55:10;10.50;;;6.40;;
77262;SDS011;66373;52.334;4.806;2023-01-08T00:57:37;12.60;;;5.60;;
77262;SDS011;66373;52.334;4.806;2023-01-08T01:00:05;8.48;;;5.53;;
77262;SDS011;66373;52.334;4.806;2023-01-08T01:02:34;9.63;;;6.10;;
77262;SDS011;66373;52.334;4.806;2023-01-08T01:05:01;13.77;;;6.00;;
77262;SDS011;66373;52.334;4.806;2023-01-08T01:07:28;7.88;;;5.32;;
77262;SDS011;66373;52.334;4.806;2023-01-08T01:09:55;8.93;;;5.03;;
77262;SDS011;66373;52.334;4.806;2023-01-08T01:12:23;9.05;;;5.32;;
77262;SDS011;66373;52.334;4.806;2023-01-08T01:14:50;10.25;;;5.70;;
77262;SDS011;66373;52.334;4.806;2023-01-08T01:17:17;8.98;;;5.53;;
77262;SDS011;66373;52.334;4.806;2023-01-08T01:19:44;13.90;;;5.32;;
77262;SDS011;66373;52.334;4.806;2023-01-08T01:22:11;11.07;;;5.75;;
77262;SDS011;66373;52.334;4.806;2023-01-08T01:24:37;6.18;;;4.55;;
77262;SDS011;66373;52.334;4.806;2023-01-08T01:27:04;7.90;;;4.40;;
77262;SDS011;66373;52.334;4.806;2023-01-08T01:29:34;6.78;;;4.45;;
77262;SDS011;66373;52.334;4.806;2023-01-08T01:32:01;7.43;;;4.00;;
77262;SDS011;66373;52.334;4.806;2023-01-08T01:34:28;7.65;;;5.25;;
77262;SDS011;66373;52.334;4.806;2023-01-08T01:36:54;6.60;;;4.45;;
77262;SDS011;66373;52.334;4.806;2023-01-08T01:39:21;7.32;;;4.60;;
77262;SDS011;66373;52.334;4.806;2023-01-08T01:41:48;7.95;;;4.28;;
77262;SDS011;66373;52.334;4.806;2023-01-08T01:44:36;4.90;;;4.03;;
77262;SDS011;66373;52.334;4.806;2023-01-08T01:47:10;5.40;;;3.97;;
77262;SDS011;66373;52.334;4.806;2023-01-08T01:49:46;7.63;;;4.30;;
77262;SDS011;66373;52.334;4.806;2023-01-08T01:52:18;6.00;;;3.80;;
77262;SDS011;66373;52.334;4.806;2023-01-08T01:54:46;5.93;;;4.18;;
77262;SDS011;66373;52.334;4.806;2023-01-08T01:57:14;5.80;;;4.13;;
77262;SDS011;66373;52.334;4.806;2023-01-08T01:59:42;6.18;;;3.90;;
77262;SDS011;66373;52.334;4.806;2023-01-08T02:02:11;5.15;;;3.25;;
77262;SDS011;66373;52.334;4.806;2023-01-08T02:04:38;8.18;;;4.43;;
77262;SDS011;66373;52.334;4.806;2023-01-08T02:07:06;6.07;;;3.80;;
77262;SDS011;66373;52.334;4.806;2023-01-08T02:09:40;5.95;;;3.80;;
77262;SDS011;66373;52.334;4.806;2023-01-08T02:12:13;6.25;;;3.30;;
77262;SDS011;66373;52.334;4.806;2023-01-08T02:14:50;5.30;;;3.30;;
77262;SDS011;66373;52.334;4.806;2023-01-08T02:17:28;7.47;;;3.60;;
77262;SDS011;66373;52.334;4.806;2023-01-08T02:20:02;7.68;;;3.78;;
77262;SDS011;66373;52.334;4.806;2023-01-08T02:22:39;5.68;;;3.25;;
77262;SDS011;66373;52.334;4.806;2023-01-08T02:25:15;6.65;;;3.25;;
77262;SDS011;66373;52.334;4.806;2023-01-08T02:27:50;6.53;;;3.30;;
77262;SDS011;66373;52.334;4.806;2023-01-08T02:30:19;5.85;;;3.50;;
77262;SDS011;66373;52.334;4.806;2023-01-08T02:32:46;6.18;;;3.58;;
77262;SDS011;66373;52.334;4.806;2023-01-08T02:35:13;5.63;;;3.05;;
77262;SDS011;66373;52.334;4.806;2023-01-08T02:37:40;6.38;;;3.40;;
77262;SDS011;66373;52.334;4.806;2023-01-08T02:40:14;4.95;;;3.15;;
77262;SDS011;66373;52.334;4.806;2023-01-08T02:42:47;5.55;;;3.30;;
77262;SDS011;66373;52.334;4.806;2023-01-08T02:45:25;4.88;;;3.17;;
77262;SDS011;66373;52.334;4.806;2023-01-08T02:47:58;4.22;;;2.88;;
77262;SDS011;66373;52.334;4.806;2023-01-08T02:50:32;3.95;;;3.00;;
77262;SDS011;66373;52.334;4.806;2023-01-08T02:53:05;4.93;;;3.38;;
77262;SDS011;66373;52.334;4.806;2023-01-08T02:55:37;4.85;;;3.10;;
77262;SDS011;66373;52.334;4.806;2023-01-08T02:58:09;6.15;;;3.13;;
77262;SDS011;66373;52.334;4.806;2023-01-08T03:00:37;4.97;;;3.00;;
77262;SDS011;66373;52.334;4.806;2023-01-08T03:03:08;3.20;;;2.92;;
77262;SDS011;66373;52.334;4.806;2023-01-08T03:05:39;3.83;;;2.80;;
77262;SDS011;66373;52.334;4.806;2023-01-08T03:08:09;5.63;;;2.92;;
77262;SDS011;66373;52.334;4.806;2023-01-08T03:10:37;3.80;;;2.90;;
77262;SDS011;66373;52.334;4.806;2023-01-08T03:13:13;4.07;;;2.97;;
77262;SDS011;66373;52.334;4.806;2023-01-08T03:15:45;3.63;;;2.90;;
77262;SDS011;66373;52.334;4.806;2023-01-08T03:18:17;6.05;;;3.00;;
77262;SDS011;66373;52.334;4.806;2023-01-08T03:20:46;4.30;;;2.63;;
77262;SDS011;66373;52.334;4.806;2023-01-08T03:23:14;4.97;;;3.10;;
77262;SDS011;66373;52.334;4.806;2023-01-08T03:25:43;4.82;;;2.78;;
77262;SDS011;66373;52.334;4.806;2023-01-08T03:28:14;3.03;;;2.60;;
77262;SDS011;66373;52.334;4.806;2023-01-08T03:30:45;4.32;;;2.78;;
77262;SDS011;66373;52.334;4.806;2023-01-08T03:33:13;3.38;;;2.75;;
77262;SDS011;66373;52.334;4.806;2023-01-08T03:35:43;3.42;;;2.53;;
77262;SDS011;66373;52.334;4.806;2023-01-08T03:38:16;4.40;;;2.63;;
77262;SDS011;66373;52.334;4.806;2023-01-08T03:40:48;2.88;;;2.45;;
77262;SDS011;66373;52.334;4.806;2023-01-08T03:43:20;6.15;;;2.70;;
77262;SDS011;66373;52.334;4.806;2023-01-08T03:45:48;3.60;;;2.60;;
77262;SDS011;66373;52.334;4.806;2023-01-08T03:48:18;4.88;;;2.55;;
77262;SDS011;66373;52.334;4.806;2023-01-08T03:50:46;2.63;;;2.40;;
77262;SDS011;66373;52.334;4.806;2023-01-08T03:53:13;2.80;;;2.30;;
77262;SDS011;66373;52.334;4.806;2023-01-08T03:55:40;3.85;;;2.60;;
77262;SDS011;66373;52.334;4.806;2023-01-08T03:58:07;2.85;;;2.42;;
77262;SDS011;66373;52.334;4.806;2023-01-08T04:00:35;2.47;;;2.28;;
77262;SDS011;66373;52.334;4.806;2023-01-08T04:03:02;3.17;;;2.40;;
77262;SDS011;66373;52.334;4.806;2023-01-08T04:05:29;3.08;;;2.42;;
77262;SDS011;66373;52.334;4.806;2023-01-08T04:07:56;3.13;;;2.38;;
77262;SDS011;66373;52.334;4.806;2023-01-08T04:10:23;5.00;;;2.42;;
77262;SDS011;66373;52.334;4.806;2023-01-08T04:12:51;3.83;;;2.30;;
77262;SDS011;66373;52.334;4.806;2023-01-08T04:15:19;3.17;;;2.33;;
77262;SDS011;66373;52.334;4.806;2023-01-08T04:17:47;3.25;;;2.17;;
77262;SDS011;66373;52.334;4.806;2023-01-08T04:20:14;4.85;;;2.58;;
77262;SDS011;66373;52.334;4.806;2023-01-08T04:22:41;3.63;;;2.20;;
77262;SDS011;66373;52.334;4.806;2023-01-08T04:25:08;2.13;;;2.00;;
77262;SDS011;66373;52.334;4.806;2023-01-08T04:27:34;2.50;;;2.25;;
77262;SDS011;66373;52.334;4.806;2023-01-08T04:30:02;2.83;;;2.35;;
77262;SDS011;66373;52.334;4.806;2023-01-08T04:32:29;3.13;;;2.15;;
77262;SDS011;66373;52.334;4.806;2023-01-08T04:34:57;3.38;;;2.38;;
77262;SDS011;66373;52.334;4.806;2023-01-08T04:37:24;2.90;;;2.20;;
77262;SDS011;66373;52.334;4.806;2023-01-08T04:39:50;2.75;;;2.42;;
77262;SDS011;66373;52.334;4.806;2023-01-08T04:42:17;4.20;;;2.53;;
77262;SDS011;66373;52.334;4.806;2023-01-08T04:44:44;4.63;;;2.38;;
77262;SDS011;66373;52.334;4.806;2023-01-08T04:47:11;4.10;;;2.30;;
77262;SDS011;66373;52.334;4.806;2023-01-08T04:49:37;2.72;;;2.33;;
77262;SDS011;66373;52.334;4.806;2023-01-08T04:52:06;3.08;;;2.20;;
77262;SDS011;66373;52.334;4.806;2023-01-08T04:54:32;2.42;;;2.22;;
77262;SDS011;66373;52.334;4.806;2023-01-08T04:56:59;3.53;;;2.60;;
77262;SDS011;66373;52.334;4.806;2023-01-08T04:59:26;3.40;;;2.10;;
77262;SDS011;66373;52.334;4.806;2023-01-08T05:01:53;3.42;;;2.17;;
77262;SDS011;66373;52.334;4.806;2023-01-08T05:04:20;2.90;;;1.90;;
77262;SDS011;66373;52.334;4.806;2023-01-08T05:06:47;4.72;;;1.92;;
77262;SDS011;66373;52.334;4.806;2023-01-08T05:09:15;2.65;;;1.90;;
77262;SDS011;66373;52.334;4.806;2023-01-08T05:11:42;3.28;;;2.08;;
77262;SDS011;66373;52.334;4.806;2023-01-08T05:14:09;2.50;;;2.30;;
77262;SDS011;66373;52.334;4.806;2023-01-08T05:16:36;2.55;;;2.13;;
77262;SDS011;66373;52.334;4.806;2023-01-08T05:19:03;3.20;;;2.05;;
77262;SDS011;66373;52.334;4.806;2023-01-08T05:21:29;2.28;;;1.92;;
77262;SDS011;66373;52.334;4.806;2023-01-08T05:23:56;2.45;;;2.25;;
77262;SDS011;66373;52.334;4.806;2023-01-08T05:26:24;2.10;;;1.90;;
77262;SDS011;66373;52.334;4.806;2023-01-08T05:28:51;2.83;;;1.92;;
77262;SDS011;66373;52.334;4.806;2023-01-08T05:31:18;3.45;;;2.20;;
77262;SDS011;66373;52.334;4.806;2023-01-08T05:33:45;2.97;;;1.88;;
77262;SDS011;66373;52.334;4.806;2023-01-08T05:36:12;3.92;;;2.40;;
77262;SDS011;66373;52.334;4.806;2023-01-08T05:38:39;2.47;;;2.05;;
77262;SDS011;66373;52.334;4.806;2023-01-08T05:41:06;2.15;;;1.85;;
77262;SDS011;66373;52.334;4.806;2023-01-08T05:43:35;4.35;;;2.13;;
77262;SDS011;66373;52.334;4.806;2023-01-08T05:46:03;3.63;;;1.75;;
77262;SDS011;66373;52.334;4.806;2023-01-08T05:48:31;2.50;;;1.77;;
77262;SDS011;66373;52.334;4.806;2023-01-08T05:50:59;2.35;;;1.92;;
77262;SDS011;66373;52.334;4.806;2023-01-08T05:53:26;4.22;;;1.95;;
77262;SDS011;66373;52.334;4.806;2023-01-08T05:55:57;3.38;;;1.88;;
77262;SDS011;66373;52.334;4.806;2023-01-08T05:58:24;2.47;;;1.83;;
77262;SDS011;66373;52.334;4.806;2023-01-08T06:00:52;1.90;;;1.73;;
77262;SDS011;66373;52.334;4.806;2023-01-08T06:03:19;3.13;;;2.10;;
77262;SDS011;66373;52.334;4.806;2023-01-08T06:05:46;2.13;;;1.80;;
77262;SDS011;66373;52.334;4.806;2023-01-08T06:08:13;2.45;;;1.80;;
77262;SDS011;66373;52.334;4.806;2023-01-08T06:10:40;2.20;;;1.70;;
77262;SDS011;66373;52.334;4.806;2023-01-08T06:13:07;2.25;;;1.83;;
77262;SDS011;66373;52.334;4.806;2023-01-08T06:15:34;3.25;;;2.05;;
77262;SDS011;66373;52.334;4.806;2023-01-08T06:18:03;1.90;;;1.67;;
77262;SDS011;66373;52.334;4.806;2023-01-08T06:20:30;3.55;;;1.90;;
77262;SDS011;66373;52.334;4.806;2023-01-08T06:22:57;5.70;;;2.10;;
77262;SDS011;66373;52.334;4.806;2023-01-08T06:25:24;2.15;;;1.88;;
77262;SDS011;66373;52.334;4.806;2023-01-08T06:27:51;2.78;;;1.90;;
77262;SDS011;66373;52.334;4.806;2023-01-08T06:30:18;2.90;;;1.98;;
77262;SDS011;66373;52.334;4.806;2023-01-08T06:32:45;2.70;;;1.92;;
77262;SDS011;66373;52.334;4.806;2023-01-08T06:35:13;6.22;;;1.90;;
77262;SDS011;66373;52.334;4.806;2023-01-08T06:37:40;2.58;;;1.65;;
77262;SDS011;66373;52.334;4.806;2023-01-08T06:40:07;2.92;;;2.08;;
77262;SDS011;66373;52.334;4.806;2023-01-08T06:42:35;2.53;;;1.73;;
77262;SDS011;66373;52.334;4.806;2023-01-08T06:45:02;2.22;;;1.75;;
77262;SDS011;66373;52.334;4.806;2023-01-08T06:47:29;4.80;;;1.77;;
77262;SDS011;66373;52.334;4.806;2023-01-08T06:49:55;3.28;;;1.92;;
77262;SDS011;66373;52.334;4.806;2023-01-08T06:52:26;2.97;;;1.83;;
77262;SDS011;66373;52.334;4.806;2023-01-08T06:54:52;2.83;;;1.85;;
77262;SDS011;66373;52.334;4.806;2023-01-08T06:57:19;2.95;;;1.55;;
77262;SDS011;66373;52.334;4.806;2023-01-08T06:59:46;2.30;;;1.80;;
77262;SDS011;66373;52.334;4.806;2023-01-08T07:02:13;3.30;;;1.60;;
77262;SDS011;66373;52.334;4.806;2023-01-08T07:04:41;11.63;;;2.20;;
77262;SDS011;66373;52.334;4.806;2023-01-08T07:07:08;3.85;;;1.67;;
77262;SDS011;66373;52.334;4.806;2023-01-08T07:09:38;6.65;;;2.13;;
77262;SDS011;66373;52.334;4.806;2023-01-08T07:12:05;3.88;;;1.67;;
77262;SDS011;66373;52.334;4.806;2023-01-08T07:14:34;1.92;;;1.80;;
77262;SDS011;66373;52.334;4.806;2023-01-08T07:17:00;2.58;;;1.73;;
77262;SDS011;66373;52.334;4.806;2023-01-08T07:19:27;4.03;;;1.80;;
77262;SDS011;66373;52.334;4.806;2023-01-08T07:21:55;3.53;;;1.98;;
77262;SDS011;66373;52.334;4.806;2023-01-08T07:24:22;5.03;;;1.60;;
77262;SDS011;66373;52.334;4.806;2023-01-08T07:26:50;3.17;;;2.00;;
77262;SDS011;66373;52.334;4.806;2023-01-08T07:29:17;3.75;;;1.67;;
77262;SDS011;66373;52.334;4.806;2023-01-08T07:31:43;2.10;;;1.75;;
77262;SDS011;66373;52.334;4.806;2023-01-08T07:34:10;3.95;;;1.67;;
77262;SDS011;66373;52.334;4.806;2023-01-08T07:36:37;4.30;;;1.98;;
77262;SDS011;66373;52.334;4.806;2023-01-08T07:39:04;1.63;;;1.45;;
77262;SDS011;66373;52.334;4.806;2023-01-08T07:41:30;4.22;;;2.00;;
77262;SDS011;66373;52.334;4.806;2023-01-08T07:43:59;4.05;;;1.80;;
77262;SDS011;66373;52.334;4.806;2023-01-08T07:46:27;5.13;;;2.15;;
77262;SDS011;66373;52.334;4.806;2023-01-08T07:48:54;2.67;;;1.80;;
77262;SDS011;66373;52.334;4.806;2023-01-08T07:51:21;2.38;;;1.70;;
77262;SDS011;66373;52.334;4.806;2023-01-08T07:53:48;2.63;;;1.58;;
77262;SDS011;66373;52.334;4.806;2023-01-08T07:56:15;1.55;;;1.42;;
77262;SDS011;66373;52.334;4.806;2023-01-08T07:58:42;3.28;;;1.73;;
77262;SDS011;66373;52.334;4.806;2023-01-08T08:01:10;1.92;;;1.63;;
77262;SDS011;66373;52.334;4.806;2023-01-08T08:03:37;2.88;;;1.70;;
77262;SDS011;66373;52.334;4.806;2023-01-08T08:06:05;3.05;;;1.73;;
77262;SDS011;66373;52.334;4.806;2023-01-08T08:08:32;3.40;;;1.75;;
77262;SDS011;66373;52.334;4.806;2023-01-08T08:10:59;3.85;;;1.70;;
77262;SDS011;66373;52.334;4.806;2023-01-08T08:13:26;4.22;;;1.92;;
77262;SDS011;66373;52.334;4.806;2023-01-08T08:15:53;2.95;;;1.73;;
77262;SDS011;66373;52.334;4.806;2023-01-08T08:18:21;6.03;;;2.10;;
77262;SDS011;66373;52.334;4.806;2023-01-08T08:20:48;3.90;;;1.77;;
77262;SDS011;66373;52.334;4.806;2023-01-08T08:23:16;4.95;;;2.03;;
77262;SDS011;66373;52.334;4.806;2023-01-08T08:25:43;2.58;;;1.88;;
77262;SDS011;66373;52.334;4.806;2023-01-08T08:28:10;3.28;;;2.33;;
77262;SDS011;66373;52.334;4.806;2023-01-08T08:30:38;2.85;;;2.45;;
77262;SDS011;66373;52.334;4.806;2023-01-08T08:33:05;4.60;;;2.20;;
77262;SDS011;66373;52.334;4.806;2023-01-08T08:35:33;5.65;;;2.38;;
77262;SDS011;66373;52.334;4.806;2023-01-08T08:38:01;5.43;;;2.20;;
77262;SDS011;66373;52.334;4.806;2023-01-08T08:40:28;3.38;;;2.25;;
77262;SDS011;66373;52.334;4.806;2023-01-08T08:42:55;4.82;;;2.60;;
77262;SDS011;66373;52.334;4.806;2023-01-08T08:45:23;7.70;;;2.90;;
77262;SDS011;66373;52.334;4.806;2023-01-08T08:47:51;4.18;;;2.80;;
77262;SDS011;66373;52.334;4.806;2023-01-08T08:50:18;5.20;;;3.28;;
77262;SDS011;66373;52.334;4.806;2023-01-08T08:52:47;5.22;;;3.22;;
77262;SDS011;66373;52.334;4.806;2023-01-08T08:55:14;4.18;;;3.17;;
77262;SDS011;66373;52.334;4.806;2023-01-08T08:57:41;8.35;;;3.85;;
77262;SDS011;66373;52.334;4.806;2023-01-08T09:00:08;6.35;;;3.65;;
77262;SDS011;66373;52.334;4.806;2023-01-08T09:02:36;5.68;;;3.75;;
77262;SDS011;66373;52.334;4.806;2023-01-08T09:05:03;5.00;;;3.40;;
77262;SDS011;66373;52.334;4.806;2023-01-08T09:07:30;8.18;;;4.30;;
77262;SDS011;66373;52.334;4.806;2023-01-08T09:09:59;8.55;;;4.03;;
77262;SDS011;66373;52.334;4.806;2023-01-08T09:12:26;10.20;;;4.93;;
77262;SDS011;66373;52.334;4.806;2023-01-08T09:14:52;7.75;;;4.82;;
77262;SDS011;66373;52.334;4.806;2023-01-08T09:17:21;11.73;;;4.55;;
77262;SDS011;66373;52.334;4.806;2023-01-08T09:19:49;8.02;;;4.55;;
77262;SDS011;66373;52.334;4.806;2023-01-08T09:22:16;9.80;;;4.18;;
77262;SDS011;66373;52.334;4.806;2023-01-08T09:24:43;6.97;;;4.57;;
77262;SDS011;66373;52.334;4.806;2023-01-08T09:27:12;8.70;;;4.75;;
77262;SDS011;66373;52.334;4.806;2023-01-08T09:29:39;7.15;;;4.70;;
77262;SDS011;66373;52.334;4.806;2023-01-08T09:32:06;7.45;;;4.93;;
77262;SDS011;66373;52.334;4.806;2023-01-08T09:34:34;9.80;;;5.25;;
77262;SDS011;66373;52.334;4.806;2023-01-08T09:37:01;11.25;;;5.53;;
77262;SDS011;66373;52.334;4.806;2023-01-08T09:39:28;9.50;;;5.38;;
77262;SDS011;66373;52.334;4.806;2023-01-08T09:41:55;15.18;;;5.50;;
77262;SDS011;66373;52.334;4.806;2023-01-08T09:44:26;8.50;;;5.20;;
77262;SDS011;66373;52.334;4.806;2023-01-08T09:46:56;10.88;;;6.35;;
77262;SDS011;66373;52.334;4.806;2023-01-08T09:49:25;9.38;;;5.82;;
77262;SDS011;66373;52.334;4.806;2023-01-08T09:54:24;9.40;;;5.38;;
77262;SDS011;66373;52.334;4.806;2023-01-08T09:56:51;8.60;;;5.45;;
77262;SDS011;66373;52.334;4.806;2023-01-08T09:59:19;8.35;;;5.05;;
77262;SDS011;66373;52.334;4.806;2023-01-08T10:01:48;11.15;;;5.75;;
77262;SDS011;66373;52.334;4.806;2023-01-08T10:04:18;8.52;;;5.75;;
77262;SDS011;66373;52.334;4.806;2023-01-08T10:06:48;10.25;;;5.45;;
77262;SDS011;66373;52.334;4.806;2023-01-08T10:09:18;10.10;;;5.88;;
77262;SDS011;66373;52.334;4.806;2023-01-08T10:11:49;7.95;;;5.05;;
77262;SDS011;66373;52.334;4.806;2023-01-08T10:14:20;9.75;;;6.13;;
77262;SDS011;66373;52.334;4.806;2023-01-08T10:16:52;9.27;;;5.88;;
77262;SDS011;66373;52.334;4.806;2023-01-08T10:19:22;11.10;;;5.90;;
77262;SDS011;66373;52.334;4.806;2023-01-08T10:21:49;8.77;;;5.90;;
77262;SDS011;66373;52.334;4.806;2023-01-08T10:24:28;13.07;;;6.20;;
77262;SDS011;66373;52.334;4.806;2023-01-08T10:27:03;9.02;;;6.18;;
77262;SDS011;66373;52.334;4.806;2023-01-08T10:29:31;10.68;;;5.75;;
77262;SDS011;66373;52.334;4.806;2023-01-08T10:32:03;9.23;;;6.15;;
77262;SDS011;66373;52.334;4.806;2023-01-08T10:34:38;9.40;;;5.65;;
77262;SDS011;66373;52.334;4.806;2023-01-08T10:37:13;6.97;;;5.72;;
77262;SDS011;66373;52.334;4.806;2023-01-08T10:39:44;9.68;;;6.35;;
77262;SDS011;66373;52.334;4.806;2023-01-08T10:42:12;12.63;;;6.70;;
77262;SDS011;66373;52.334;4.806;2023-01-08T10:44:44;11.63;;;6.60;;
77262;SDS011;66373;52.334;4.806;2023-01-08T10:47:21;12.25;;;7.18;;
77262;SDS011;66373;52.334;4.806;2023-01-08T10:49:50;8.07;;;6.18;;
77262;SDS011;66373;52.334;4.806;2023-01-08T10:52:24;10.05;;;6.68;;
77262;SDS011;66373;52.334;4.806;2023-01-08T10:54:53;8.15;;;6.93;;
77262;SDS011;66373;52.334;4.806;2023-01-08T10:57:22;8.73;;;6.25;;
77262;SDS011;66373;52.334;4.806;2023-01-08T10:59:51;12.73;;;6.60;;
77262;SDS011;66373;52.334;4.806;2023-01-08T11:02:23;8.20;;;6.60;;
77262;SDS011;66373;52.334;4.806;2023-01-08T11:04:56;12.20;;;6.82;;
77262;SDS011;66373;52.334;4.806;2023-01-08T11:07:24;9.02;;;6.93;;
77262;SDS011;66373;52.334;4.806;2023-01-08T11:09:52;9.45;;;6.72;;
77262;SDS011;66373;52.334;4.806;2023-01-08T11:12:27;9.55;;;5.97;;
77262;SDS011;66373;52.334;4.806;2023-01-08T11:15:06;7.60;;;5.90;;
77262;SDS011;66373;52.334;4.806;2023-01-08T11:17:53;9.60;;;6.18;;
77262;SDS011;66373;52.334;4.806;2023-01-08T11:20:21;8.82;;;6.55;;
77262;SDS011;66373;52.334;4.806;2023-01-08T11:23:02;7.40;;;6.28;;
77262;SDS011;66373;52.334;4.806;2023-01-08T11:25:30;7.15;;;5.95;;
77262;SDS011;66373;52.334;4.806;2023-01-08T11:27:59;10.55;;;5.57;;
77262;SDS011;66373;52.334;4.806;2023-01-08T11:30:30;8.52;;;5.80;;
77262;SDS011;66373;52.334;4.806;2023-01-08T11:33:02;6.88;;;5.97;;
77262;SDS011;66373;52.334;4.806;2023-01-08T11:35:32;10.40;;;5.95;;
77262;SDS011;66373;52.334;4.806;2023-01-08T11:38:03;10.38;;;6.47;;
77262;SDS011;66373;52.334;4.806;2023-01-08T11:40:36;10.35;;;5.72;;
77262;SDS011;66373;52.334;4.806;2023-01-08T11:43:12;9.60;;;5.63;;
77262;SDS011;66373;52.334;4.806;2023-01-08T11:45:56;10.10;;;5.68;;
77262;SDS011;66373;52.334;4.806;2023-01-08T11:48:51;8.82;;;5.55;;
77262;SDS011;66373;52.334;4.806;2023-01-08T11:51:48;10.32;;;5.78;;
77262;SDS011;66373;52.334;4.806;2023-01-08T11:54:26;7.75;;;5.47;;
77262;SDS011;66373;52.334;4.806;2023-01-08T11:57:11;8.65;;;6.00;;
77262;SDS011;66373;52.334;4.806;2023-01-08T11:59:52;6.80;;;5.30;;
77262;SDS011;66373;52.334;4.806;2023-01-08T12:02:34;8.73;;;5.65;;
77262;SDS011;66373;52.334;4.806;2023-01-08T12:08:05;10.93;;;5.72;;
77262;SDS011;66373;52.334;4.806;2023-01-08T12:10:43;16.83;;;6.03;;
77262;SDS011;66373;52.334;4.806;2023-01-08T12:13:22;7.60;;;5.10;;
77262;SDS011;66373;52.334;4.806;2023-01-08T12:16:01;11.32;;;6.53;;
77262;SDS011;66373;52.334;4.806;2023-01-08T12:18:49;10.27;;;5.22;;
77262;SDS011;66373;52.334;4.806;2023-01-08T12:21:31;10.35;;;5.35;;
77262;SDS011;66373;52.334;4.806;2023-01-08T12:24:02;11.27;;;6.20;;
77262;SDS011;66373;52.334;4.806;2023-01-08T12:26:41;9.77;;;5.28;;
77262;SDS011;66373;52.334;4.806;2023-01-08T12:29:20;9.02;;;4.90;;
77262;SDS011;66373;52.334;4.806;2023-01-08T12:32:06;6.18;;;4.85;;
77262;SDS011;66373;52.334;4.806;2023-01-08T12:34:48;7.90;;;5.10;;
77262;SDS011;66373;52.334;4.806;2023-01-08T12:37:23;10.07;;;5.13;;
77262;SDS011;66373;52.334;4.806;2023-01-08T12:39:55;7.25;;;4.63;;
77262;SDS011;66373;52.334;4.806;2023-01-08T12:42:31;6.38;;;4.70;;
77262;SDS011;66373;52.334;4.806;2023-01-08T12:45:04;9.63;;;5.53;;
77262;SDS011;66373;52.334;4.806;2023-01-08T12:47:39;7.10;;;4.38;;
77262;SDS011;66373;52.334;4.806;2023-01-08T12:50:16;9.95;;;5.28;;
77262;SDS011;66373;52.334;4.806;2023-01-08T12:52:53;7.13;;;4.65;;
77262;SDS011;66373;52.334;4.806;2023-01-08T12:55:30;14.98;;;4.97;;
77262;SDS011;66373;52.334;4.806;2023-01-08T12:58:08;7.82;;;4.18;;
77262;SDS011;66373;52.334;4.806;2023-01-08T13:00:44;6.75;;;4.30;;
77262;SDS011;66373;52.334;4.806;2023-01-08T13:03:20;9.55;;;3.85;;
77262;SDS011;66373;52.334;4.806;2023-01-08T13:05:50;7.38;;;3.60;;
77262;SDS011;66373;52.334;4.806;2023-01-08T13:08:22;8.38;;;3.92;;
77262;SDS011;66373;52.334;4.806;2023-01-08T13:10:56;7.10;;;4.30;;
77262;SDS011;66373;52.334;4.806;2023-01-08T13:13:24;6.82;;;4.45;;
77262;SDS011;66373;52.334;4.806;2023-01-08T13:16:04;8.25;;;4.45;;
77262;SDS011;66373;52.334;4.806;2023-01-08T13:18:49;9.32;;;4.10;;
77262;SDS011;66373;52.334;4.806;2023-01-08T13:21:18;6.57;;;3.75;;
77262;SDS011;66373;52.334;4.806;2023-01-08T13:24:00;6.60;;;3.80;;
77262;SDS011;66373;52.334;4.806;2023-01-08T13:26:28;7.50;;;4.25;;
77262;SDS011;66373;52.334;4.806;2023-01-08T13:29:07;10.52;;;3.92;;
77262;SDS011;66373;52.334;4.806;2023-01-08T13:31:49;6.28;;;3.85;;
77262;SDS011;66373;52.334;4.806;2023-01-08T13:34:17;6.45;;;3.92;;
77262;SDS011;66373;52.334;4.806;2023-01-08T13:36:59;10.13;;;4.45;;
77262;SDS011;66373;52.334;4.806;2023-01-08T13:39:35;10.07;;;4.25;;
77262;SDS011;66373;52.334;4.806;2023-01-08T13:42:18;6.43;;;3.65;;
77262;SDS011;66373;52.334;4.806;2023-01-08T13:44:48;4.80;;;3.65;;
77262;SDS011;66373;52.334;4.806;2023-01-08T13:47:18;7.00;;;4.05;;
77262;SDS011;66373;52.334;4.806;2023-01-08T13:49:50;8.20;;;4.13;;
77262;SDS011;66373;52.334;4.806;2023-01-08T13:52:26;6.97;;;3.58;;
77262;SDS011;66373;52.334;4.806;2023-01-08T13:54:59;6.20;;;3.72;;
77262;SDS011;66373;52.334;4.806;2023-01-08T13:57:30;7.68;;;4.07;;
77262;SDS011;66373;52.334;4.806;2023-01-08T14:00:04;3.42;;;3.05;;
77262;SDS011;66373;52.334;4.806;2023-01-08T14:05:17;5.18;;;3.05;;
77262;SDS011;66373;52.334;4.806;2023-01-08T14:07:47;5.03;;;3.80;;
77262;SDS011;66373;52.334;4.806;2023-01-08T14:10:16;8.50;;;3.63;;
77262;SDS011;66373;52.334;4.806;2023-01-08T14:12:43;4.78;;;3.55;;
77262;SDS011;66373;52.334;4.806;2023-01-08T14:15:16;7.38;;;3.78;;
77262;SDS011;66373;52.334;4.806;2023-01-08T14:17:47;6.82;;;3.70;;
77262;SDS011;66373;52.334;4.806;2023-01-08T14:20:19;8.65;;;3.13;;
77262;SDS011;66373;52.334;4.806;2023-01-08T14:22:53;7.57;;;3.60;;
77262;SDS011;66373;52.334;4.806;2023-01-08T14:25:22;4.15;;;3.40;;
77262;SDS011;66373;52.334;4.806;2023-01-08T14:27:54;6.93;;;3.30;;
77262;SDS011;66373;52.334;4.806;2023-01-08T14:30:23;4.30;;;3.03;;
77262;SDS011;66373;52.334;4.806;2023-01-08T14:32:51;9.63;;;3.95;;
77262;SDS011;66373;52.334;4.806;2023-01-08T14:35:22;6.60;;;3.25;;
77262;SDS011;66373;52.334;4.806;2023-01-08T14:37:58;7.93;;;3.08;;
77262;SDS011;66373;52.334;4.806;2023-01-08T14:40:28;7.95;;;3.45;;
77262;SDS011;66373;52.334;4.806;2023-01-08T14:45:28;7.00;;;3.17;;
77262;SDS011;66373;52.334;4.806;2023-01-08T14:47:59;11.68;;;3.10;;
77262;SDS011;66373;52.334;4.806;2023-01-08T14:50:34;7.20;;;2.78;;
77262;SDS011;66373;52.334;4.806;2023-01-08T14:53:04;4.72;;;3.10;;
77262;SDS011;66373;52.334;4.806;2023-01-08T14:55:35;4.00;;;3.17;;
77262;SDS011;66373;52.334;4.806;2023-01-08T14:58:10;5.60;;;2.75;;
77262;SDS011;66373;52.334;4.806;2023-01-08T15:00:40;4.00;;;3.60;;
77262;SDS011;66373;52.334;4.806;2023-01-08T15:03:21;5.15;;;3.10;;
77262;SDS011;66373;52.334;4.806;2023-01-08T15:05:55;6.28;;;2.83;;
77262;SDS011;66373;52.334;4.806;2023-01-08T15:08:23;4.10;;;3.38;;
77262;SDS011;66373;52.334;4.806;2023-01-08T15:10:59;4.97;;;3.00;;
77262;SDS011;66373;52.334;4.806;2023-01-08T15:13:32;4.72;;;3.10;;